sensor_id;sensor_type;location;lat;lon;timestamp;P1;durP1;ratioP1;P2;durP2;ratioP2
11078;SDS011;5592;49.234;7.268;2023-06-26T00:00:03;6.60;;;5.40;;
11078;SDS011;5592;49.234;7.268;2023-06-26T00:02:30;9.80;;;6.20;;
11078;SDS011;5592;49.234;7.268;2023-06-26T00:04:57;7.00;;;5.80;;
11078;SDS011;5592;49.234;7.268;2023-06-26T00:07:23;6.80;;;5.73;;
11078;SDS011;5592;49.234;7.268;2023-06-26T00:09:49;7.10;;;5.60;;
11078;SDS011;5592;49.234;7.268;2023-06-26T00:12:14;7.73;;;5.37;;
11078;SDS011;5592;49.234;7.268;2023-06-26T00:14:40;7.17;;;5.83;;
11078;SDS011;5592;49.234;7.268;2023-06-26T00:17:05;6.37;;;5.40;;
11078;SDS011;5592;49.234;7.268;2023-06-26T00:19:31;7.70;;;5.80;;
11078;SDS011;5592;49.234;7.268;2023-06-26T00:21:58;7.33;;;5.60;;
11078;SDS011;5592;49.234;7.268;2023-06-26T00:24:26;7.37;;;5.83;;
11078;SDS011;5592;49.234;7.268;2023-06-26T00:26:52;7.57;;;5.63;;
11078;SDS011;5592;49.234;7.268;2023-06-26T00:29:17;6.70;;;5.60;;
11078;SDS011;5592;49.234;7.268;2023-06-26T00:31:43;8.10;;;5.60;;
11078;SDS011;5592;49.234;7.268;2023-06-26T00:34:09;8.33;;;5.83;;
11078;SDS011;5592;49.234;7.268;2023-06-26T00:36:34;7.93;;;6.27;;
11078;SDS011;5592;49.234;7.268;2023-06-26T00:39:00;8.00;;;6.13;;
11078;SDS011;5592;49.234;7.268;2023-06-26T00:41:26;6.40;;;5.43;;
11078;SDS011;5592;49.234;7.268;2023-06-26T00:43:51;7.43;;;5.90;;
11078;SDS011;5592;49.234;7.268;2023-06-26T00:46:17;9.90;;;5.60;;
11078;SDS011;5592;49.234;7.268;2023-06-26T00:48:43;8.10;;;5.97;;
11078;SDS011;5592;49.234;7.268;2023-06-26T00:51:13;6.80;;;5.53;;
11078;SDS011;5592;49.234;7.268;2023-06-26T00:53:39;8.33;;;6.20;;
11078;SDS011;5592;49.234;7.268;2023-06-26T00:56:05;6.97;;;6.07;;
11078;SDS011;5592;49.234;7.268;2023-06-26T00:58:31;9.63;;;5.90;;
11078;SDS011;5592;49.234;7.268;2023-06-26T01:00:57;9.87;;;6.00;;
11078;SDS011;5592;49.234;7.268;2023-06-26T01:03:23;7.40;;;6.00;;
11078;SDS011;5592;49.234;7.268;2023-06-26T01:05:50;8.60;;;6.80;;
11078;SDS011;5592;49.234;7.268;2023-06-26T01:08:17;7.80;;;5.90;;
11078;SDS011;5592;49.234;7.268;2023-06-26T01:10:44;7.30;;;5.90;;
11078;SDS011;5592;49.234;7.268;2023-06-26T01:13:11;10.03;;;6.43;;
11078;SDS011;5592;49.234;7.268;2023-06-26T01:15:39;8.47;;;6.73;;
11078;SDS011;5592;49.234;7.268;2023-06-26T01:18:05;12.47;;;5.80;;
11078;SDS011;5592;49.234;7.268;2023-06-26T01:20:31;7.13;;;6.30;;
11078;SDS011;5592;49.234;7.268;2023-06-26T01:23:17;7.17;;;5.87;;
11078;SDS011;5592;49.234;7.268;2023-06-26T01:25:52;9.97;;;6.47;;
11078;SDS011;5592;49.234;7.268;2023-06-26T01:28:43;7.00;;;5.50;;
11078;SDS011;5592;49.234;7.268;2023-06-26T01:31:13;7.67;;;5.50;;
11078;SDS011;5592;49.234;7.268;2023-06-26T01:33:40;7.57;;;6.00;;
11078;SDS011;5592;49.234;7.268;2023-06-26T01:36:06;7.37;;;6.57;;
11078;SDS011;5592;49.234;7.268;2023-06-26T01:38:32;8.63;;;6.20;;
11078;SDS011;5592;49.234;7.268;2023-06-26T01:40:59;7.47;;;6.13;;
11078;SDS011;5592;49.234;7.268;2023-06-26T01:43:27;8.70;;;6.37;;
11078;SDS011;5592;49.234;7.268;2023-06-26T01:48:47;7.87;;;6.63;;
11078;SDS011;5592;49.234;7.268;2023-06-26T01:51:20;7.80;;;6.53;;
11078;SDS011;5592;49.234;7.268;2023-06-26T01:53:50;9.50;;;6.43;;
11078;SDS011;5592;49.234;7.268;2023-06-26T01:56:21;10.70;;;6.60;;
11078;SDS011;5592;49.234;7.268;2023-06-26T01:58:49;7.93;;;6.87;;
11078;SDS011;5592;49.234;7.268;2023-06-26T02:01:19;8.40;;;7.00;;
11078;SDS011;5592;49.234;7.268;2023-06-26T02:03:45;16.17;;;6.60;;
11078;SDS011;5592;49.234;7.268;2023-06-26T02:06:11;9.03;;;6.83;;
11078;SDS011;5592;49.234;7.268;2023-06-26T02:08:37;8.43;;;6.07;;
11078;SDS011;5592;49.234;7.268;2023-06-26T02:11:02;9.13;;;7.30;;
11078;SDS011;5592;49.234;7.268;2023-06-26T02:13:28;10.10;;;7.27;;
11078;SDS011;5592;49.234;7.268;2023-06-26T02:15:53;8.00;;;6.10;;
11078;SDS011;5592;49.234;7.268;2023-06-26T02:18:19;7.63;;;6.20;;
11078;SDS011;5592;49.234;7.268;2023-06-26T02:20:47;8.13;;;5.40;;
11078;SDS011;5592;49.234;7.268;2023-06-26T02:23:13;8.67;;;6.13;;
11078;SDS011;5592;49.234;7.268;2023-06-26T02:25:39;8.07;;;6.10;;
11078;SDS011;5592;49.234;7.268;2023-06-26T02:28:04;7.43;;;6.33;;
11078;SDS011;5592;49.234;7.268;2023-06-26T02:30:30;8.50;;;6.00;;
11078;SDS011;5592;49.234;7.268;2023-06-26T02:32:56;10.10;;;6.40;;
11078;SDS011;5592;49.234;7.268;2023-06-26T02:35:21;8.90;;;6.40;;
11078;SDS011;5592;49.234;7.268;2023-06-26T02:37:47;7.17;;;6.47;;
11078;SDS011;5592;49.234;7.268;2023-06-26T02:40:12;8.60;;;6.53;;
11078;SDS011;5592;49.234;7.268;2023-06-26T02:42:38;8.93;;;6.70;;
11078;SDS011;5592;49.234;7.268;2023-06-26T02:45:03;8.63;;;6.43;;
11078;SDS011;5592;49.234;7.268;2023-06-26T02:47:30;9.40;;;6.80;;
11078;SDS011;5592;49.234;7.268;2023-06-26T02:49:55;7.87;;;6.30;;
11078;SDS011;5592;49.234;7.268;2023-06-26T02:52:21;8.17;;;5.80;;
11078;SDS011;5592;49.234;7.268;2023-06-26T02:54:47;13.23;;;7.20;;
11078;SDS011;5592;49.234;7.268;2023-06-26T02:57:12;8.83;;;7.40;;
11078;SDS011;5592;49.234;7.268;2023-06-26T02:59:42;8.90;;;6.90;;
11078;SDS011;5592;49.234;7.268;2023-06-26T03:02:07;9.43;;;6.90;;
11078;SDS011;5592;49.234;7.268;2023-06-26T03:04:33;8.37;;;6.67;;
11078;SDS011;5592;49.234;7.268;2023-06-26T03:07:02;8.50;;;6.73;;
11078;SDS011;5592;49.234;7.268;2023-06-26T03:09:28;9.00;;;7.60;;
11078;SDS011;5592;49.234;7.268;2023-06-26T03:11:54;9.10;;;7.23;;
11078;SDS011;5592;49.234;7.268;2023-06-26T03:14:20;9.10;;;7.23;;
11078;SDS011;5592;49.234;7.268;2023-06-26T03:16:46;9.10;;;7.33;;
11078;SDS011;5592;49.234;7.268;2023-06-26T03:19:12;10.10;;;7.07;;
11078;SDS011;5592;49.234;7.268;2023-06-26T03:21:37;9.70;;;6.90;;
11078;SDS011;5592;49.234;7.268;2023-06-26T03:24:03;10.40;;;7.30;;
11078;SDS011;5592;49.234;7.268;2023-06-26T03:26:28;9.53;;;7.07;;
11078;SDS011;5592;49.234;7.268;2023-06-26T03:28:54;8.33;;;7.03;;
11078;SDS011;5592;49.234;7.268;2023-06-26T03:31:20;10.67;;;8.23;;
11078;SDS011;5592;49.234;7.268;2023-06-26T03:33:46;11.00;;;7.23;;
11078;SDS011;5592;49.234;7.268;2023-06-26T03:36:11;7.03;;;6.23;;
11078;SDS011;5592;49.234;7.268;2023-06-26T03:38:37;7.60;;;6.57;;
11078;SDS011;5592;49.234;7.268;2023-06-26T03:41:03;7.77;;;6.57;;
11078;SDS011;5592;49.234;7.268;2023-06-26T03:43:28;10.20;;;7.30;;
11078;SDS011;5592;49.234;7.268;2023-06-26T03:45:54;10.13;;;6.97;;
11078;SDS011;5592;49.234;7.268;2023-06-26T03:48:19;8.80;;;6.97;;
11078;SDS011;5592;49.234;7.268;2023-06-26T03:50:45;7.00;;;6.30;;
11078;SDS011;5592;49.234;7.268;2023-06-26T03:53:11;12.87;;;7.60;;
11078;SDS011;5592;49.234;7.268;2023-06-26T03:55:37;8.60;;;6.00;;
11078;SDS011;5592;49.234;7.268;2023-06-26T03:58:03;8.43;;;6.40;;
11078;SDS011;5592;49.234;7.268;2023-06-26T04:00:29;9.63;;;7.13;;
11078;SDS011;5592;49.234;7.268;2023-06-26T04:02:55;11.80;;;6.67;;
11078;SDS011;5592;49.234;7.268;2023-06-26T04:05:21;12.00;;;6.67;;
11078;SDS011;5592;49.234;7.268;2023-06-26T04:07:49;8.90;;;6.13;;
11078;SDS011;5592;49.234;7.268;2023-06-26T04:10:16;8.43;;;6.83;;
11078;SDS011;5592;49.234;7.268;2023-06-26T04:12:41;7.97;;;6.10;;
11078;SDS011;5592;49.234;7.268;2023-06-26T04:15:07;12.50;;;6.73;;
11078;SDS011;5592;49.234;7.268;2023-06-26T04:17:33;8.60;;;7.07;;
11078;SDS011;5592;49.234;7.268;2023-06-26T04:19:59;9.43;;;6.90;;
11078;SDS011;5592;49.234;7.268;2023-06-26T04:22:24;6.60;;;5.70;;
11078;SDS011;5592;49.234;7.268;2023-06-26T04:24:50;9.07;;;6.47;;
11078;SDS011;5592;49.234;7.268;2023-06-26T04:27:16;9.20;;;6.37;;
11078;SDS011;5592;49.234;7.268;2023-06-26T04:29:43;8.83;;;5.80;;
11078;SDS011;5592;49.234;7.268;2023-06-26T04:32:08;7.60;;;6.03;;
11078;SDS011;5592;49.234;7.268;2023-06-26T04:34:34;6.90;;;5.73;;
11078;SDS011;5592;49.234;7.268;2023-06-26T04:37:01;6.33;;;5.30;;
11078;SDS011;5592;49.234;7.268;2023-06-26T04:39:28;5.87;;;5.10;;
11078;SDS011;5592;49.234;7.268;2023-06-26T04:41:55;6.70;;;6.00;;
11078;SDS011;5592;49.234;7.268;2023-06-26T04:44:20;11.90;;;6.50;;
11078;SDS011;5592;49.234;7.268;2023-06-26T04:46:46;6.73;;;5.90;;
11078;SDS011;5592;49.234;7.268;2023-06-26T04:49:11;8.80;;;5.43;;
11078;SDS011;5592;49.234;7.268;2023-06-26T04:51:37;8.70;;;6.17;;
11078;SDS011;5592;49.234;7.268;2023-06-26T04:54:05;6.20;;;5.10;;
11078;SDS011;5592;49.234;7.268;2023-06-26T04:56:35;6.57;;;5.47;;
11078;SDS011;5592;49.234;7.268;2023-06-26T04:59:01;7.27;;;5.23;;
11078;SDS011;5592;49.234;7.268;2023-06-26T05:01:27;6.57;;;5.60;;
11078;SDS011;5592;49.234;7.268;2023-06-26T05:03:55;8.30;;;5.30;;
11078;SDS011;5592;49.234;7.268;2023-06-26T05:06:21;8.50;;;6.23;;
11078;SDS011;5592;49.234;7.268;2023-06-26T05:08:47;6.90;;;5.50;;
11078;SDS011;5592;49.234;7.268;2023-06-26T05:11:13;7.03;;;5.03;;
11078;SDS011;5592;49.234;7.268;2023-06-26T05:13:38;14.77;;;5.80;;
11078;SDS011;5592;49.234;7.268;2023-06-26T05:16:05;5.83;;;5.23;;
11078;SDS011;5592;49.234;7.268;2023-06-26T05:18:31;7.60;;;5.57;;
11078;SDS011;5592;49.234;7.268;2023-06-26T05:20:56;8.23;;;6.10;;
11078;SDS011;5592;49.234;7.268;2023-06-26T05:23:25;6.87;;;5.33;;
11078;SDS011;5592;49.234;7.268;2023-06-26T05:25:51;5.53;;;4.83;;
11078;SDS011;5592;49.234;7.268;2023-06-26T05:28:17;7.20;;;5.97;;
11078;SDS011;5592;49.234;7.268;2023-06-26T05:30:43;14.20;;;6.10;;
11078;SDS011;5592;49.234;7.268;2023-06-26T05:33:12;7.17;;;6.47;;
11078;SDS011;5592;49.234;7.268;2023-06-26T05:35:39;9.70;;;6.30;;
11078;SDS011;5592;49.234;7.268;2023-06-26T05:38:07;7.93;;;6.00;;
11078;SDS011;5592;49.234;7.268;2023-06-26T05:40:33;7.57;;;6.80;;
11078;SDS011;5592;49.234;7.268;2023-06-26T05:42:59;6.77;;;6.10;;
11078;SDS011;5592;49.234;7.268;2023-06-26T05:45:25;6.30;;;5.60;;
11078;SDS011;5592;49.234;7.268;2023-06-26T05:47:51;8.60;;;5.73;;
11078;SDS011;5592;49.234;7.268;2023-06-26T05:50:17;7.80;;;6.00;;
11078;SDS011;5592;49.234;7.268;2023-06-26T05:52:43;6.80;;;6.13;;
11078;SDS011;5592;49.234;7.268;2023-06-26T05:55:09;5.60;;;5.10;;
11078;SDS011;5592;49.234;7.268;2023-06-26T05:57:36;9.73;;;6.00;;
11078;SDS011;5592;49.234;7.268;2023-06-26T06:00:03;10.70;;;6.17;;
11078;SDS011;5592;49.234;7.268;2023-06-26T06:02:31;8.67;;;6.37;;
11078;SDS011;5592;49.234;7.268;2023-06-26T06:04:57;8.67;;;6.60;;
11078;SDS011;5592;49.234;7.268;2023-06-26T06:07:22;7.60;;;6.67;;
11078;SDS011;5592;49.234;7.268;2023-06-26T06:12:28;7.05;;;6.35;;
11078;SDS011;5592;49.234;7.268;2023-06-26T06:14:55;7.03;;;6.32;;
11078;SDS011;5592;49.234;7.268;2023-06-26T06:17:21;6.05;;;5.55;;
11078;SDS011;5592;49.234;7.268;2023-06-26T06:19:47;6.72;;;5.65;;
11078;SDS011;5592;49.234;7.268;2023-06-26T06:22:12;6.60;;;5.28;;
11078;SDS011;5592;49.234;7.268;2023-06-26T06:24:38;6.38;;;5.78;;
11078;SDS011;5592;49.234;7.268;2023-06-26T06:27:04;5.70;;;5.20;;
11078;SDS011;5592;49.234;7.268;2023-06-26T06:29:29;8.48;;;6.38;;
11078;SDS011;5592;49.234;7.268;2023-06-26T06:31:55;7.20;;;6.40;;
11078;SDS011;5592;49.234;7.268;2023-06-26T06:34:21;8.70;;;5.93;;
11078;SDS011;5592;49.234;7.268;2023-06-26T06:36:47;10.75;;;5.85;;
11078;SDS011;5592;49.234;7.268;2023-06-26T06:39:12;10.30;;;5.55;;
11078;SDS011;5592;49.234;7.268;2023-06-26T06:41:39;8.63;;;6.63;;
11078;SDS011;5592;49.234;7.268;2023-06-26T06:44:04;7.57;;;6.43;;
11078;SDS011;5592;49.234;7.268;2023-06-26T06:46:46;7.53;;;6.80;;
11078;SDS011;5592;49.234;7.268;2023-06-26T06:49:15;13.30;;;6.20;;
11078;SDS011;5592;49.234;7.268;2023-06-26T06:51:40;8.20;;;7.00;;
11078;SDS011;5592;49.234;7.268;2023-06-26T06:54:06;8.80;;;6.70;;
11078;SDS011;5592;49.234;7.268;2023-06-26T06:56:32;11.70;;;6.30;;
11078;SDS011;5592;49.234;7.268;2023-06-26T06:58:57;10.25;;;6.88;;
11078;SDS011;5592;49.234;7.268;2023-06-26T07:01:23;9.68;;;6.72;;
11078;SDS011;5592;49.234;7.268;2023-06-26T07:03:48;13.50;;;7.35;;
11078;SDS011;5592;49.234;7.268;2023-06-26T07:06:14;8.30;;;6.40;;
11078;SDS011;5592;49.234;7.268;2023-06-26T07:08:39;8.05;;;6.03;;
11078;SDS011;5592;49.234;7.268;2023-06-26T07:11:05;6.65;;;5.90;;
11078;SDS011;5592;49.234;7.268;2023-06-26T07:13:30;8.07;;;6.78;;
11078;SDS011;5592;49.234;7.268;2023-06-26T07:15:56;6.90;;;6.18;;
11078;SDS011;5592;49.234;7.268;2023-06-26T07:18:21;8.00;;;5.90;;
11078;SDS011;5592;49.234;7.268;2023-06-26T07:20:47;10.32;;;6.38;;
11078;SDS011;5592;49.234;7.268;2023-06-26T07:23:12;11.00;;;6.35;;
11078;SDS011;5592;49.234;7.268;2023-06-26T07:25:38;8.50;;;7.03;;
11078;SDS011;5592;49.234;7.268;2023-06-26T07:28:09;9.15;;;5.93;;
11078;SDS011;5592;49.234;7.268;2023-06-26T07:30:38;6.78;;;6.07;;
11078;SDS011;5592;49.234;7.268;2023-06-26T07:33:03;7.88;;;6.72;;
11078;SDS011;5592;49.234;7.268;2023-06-26T07:35:29;10.10;;;6.55;;
11078;SDS011;5592;49.234;7.268;2023-06-26T07:37:56;8.15;;;6.00;;
11078;SDS011;5592;49.234;7.268;2023-06-26T07:40:23;10.63;;;6.20;;
11078;SDS011;5592;49.234;7.268;2023-06-26T07:42:49;8.37;;;6.23;;
11078;SDS011;5592;49.234;7.268;2023-06-26T07:45:15;7.05;;;5.97;;
11078;SDS011;5592;49.234;7.268;2023-06-26T07:47:41;7.25;;;5.57;;
11078;SDS011;5592;49.234;7.268;2023-06-26T07:50:08;7.25;;;6.18;;
11078;SDS011;5592;49.234;7.268;2023-06-26T07:52:36;6.05;;;5.53;;
11078;SDS011;5592;49.234;7.268;2023-06-26T07:55:01;7.38;;;5.28;;
11078;SDS011;5592;49.234;7.268;2023-06-26T07:57:28;7.80;;;5.30;;
11078;SDS011;5592;49.234;7.268;2023-06-26T07:59:54;5.97;;;5.35;;
11078;SDS011;5592;49.234;7.268;2023-06-26T08:02:20;8.40;;;5.57;;
11078;SDS011;5592;49.234;7.268;2023-06-26T08:04:46;9.02;;;4.90;;
11078;SDS011;5592;49.234;7.268;2023-06-26T08:07:12;5.28;;;4.75;;
11078;SDS011;5592;49.234;7.268;2023-06-26T08:09:39;8.98;;;5.10;;
11078;SDS011;5592;49.234;7.268;2023-06-26T08:12:04;5.07;;;4.40;;
11078;SDS011;5592;49.234;7.268;2023-06-26T08:14:30;5.00;;;4.43;;
11078;SDS011;5592;49.234;7.268;2023-06-26T08:16:56;7.40;;;4.20;;
11078;SDS011;5592;49.234;7.268;2023-06-26T08:19:22;10.57;;;4.38;;
11078;SDS011;5592;49.234;7.268;2023-06-26T08:21:48;4.72;;;4.10;;
11078;SDS011;5592;49.234;7.268;2023-06-26T08:24:14;6.97;;;4.75;;
11078;SDS011;5592;49.234;7.268;2023-06-26T08:26:44;5.70;;;4.07;;
11078;SDS011;5592;49.234;7.268;2023-06-26T08:29:11;5.13;;;4.65;;
11078;SDS011;5592;49.234;7.268;2023-06-26T08:31:37;4.22;;;3.83;;
11078;SDS011;5592;49.234;7.268;2023-06-26T08:34:03;7.00;;;3.63;;
11078;SDS011;5592;49.234;7.268;2023-06-26T08:36:29;4.28;;;3.85;;
11078;SDS011;5592;49.234;7.268;2023-06-26T08:38:56;8.55;;;4.07;;
11078;SDS011;5592;49.234;7.268;2023-06-26T08:41:22;4.80;;;3.88;;
11078;SDS011;5592;49.234;7.268;2023-06-26T08:43:48;4.22;;;3.67;;
11078;SDS011;5592;49.234;7.268;2023-06-26T08:46:16;6.18;;;4.38;;
11078;SDS011;5592;49.234;7.268;2023-06-26T08:48:41;4.47;;;4.03;;
11078;SDS011;5592;49.234;7.268;2023-06-26T08:51:16;6.75;;;3.55;;
11078;SDS011;5592;49.234;7.268;2023-06-26T08:53:44;6.18;;;4.07;;
11078;SDS011;5592;49.234;7.268;2023-06-26T08:56:17;5.60;;;4.22;;
11078;SDS011;5592;49.234;7.268;2023-06-26T08:58:46;5.25;;;3.47;;
11078;SDS011;5592;49.234;7.268;2023-06-26T09:01:11;6.47;;;4.18;;
11078;SDS011;5592;49.234;7.268;2023-06-26T09:03:37;4.30;;;3.90;;
11078;SDS011;5592;49.234;7.268;2023-06-26T09:06:06;5.57;;;3.55;;
11078;SDS011;5592;49.234;7.268;2023-06-26T09:08:32;7.07;;;3.63;;
11078;SDS011;5592;49.234;7.268;2023-06-26T09:10:59;3.58;;;3.25;;
11078;SDS011;5592;49.234;7.268;2023-06-26T09:13:24;4.63;;;3.47;;
11078;SDS011;5592;49.234;7.268;2023-06-26T09:15:52;4.85;;;3.03;;
11078;SDS011;5592;49.234;7.268;2023-06-26T09:18:20;3.60;;;3.17;;
11078;SDS011;5592;49.234;7.268;2023-06-26T09:20:46;3.60;;;3.03;;
11078;SDS011;5592;49.234;7.268;2023-06-26T09:23:12;5.50;;;2.78;;
11078;SDS011;5592;49.234;7.268;2023-06-26T09:25:39;5.72;;;2.20;;
11078;SDS011;5592;49.234;7.268;2023-06-26T09:28:05;3.25;;;2.78;;
11078;SDS011;5592;49.234;7.268;2023-06-26T09:30:34;3.47;;;3.10;;
11078;SDS011;5592;49.234;7.268;2023-06-26T09:33:17;3.08;;;2.42;;
11078;SDS011;5592;49.234;7.268;2023-06-26T09:35:44;3.80;;;2.33;;
11078;SDS011;5592;49.234;7.268;2023-06-26T09:38:11;3.85;;;2.40;;
11078;SDS011;5592;49.234;7.268;2023-06-26T09:40:37;3.42;;;3.13;;
11078;SDS011;5592;49.234;7.268;2023-06-26T09:43:05;4.78;;;3.50;;
11078;SDS011;5592;49.234;7.268;2023-06-26T09:45:32;4.47;;;3.30;;
11078;SDS011;5592;49.234;7.268;2023-06-26T09:48:02;3.45;;;3.15;;
11078;SDS011;5592;49.234;7.268;2023-06-26T09:50:29;6.22;;;3.38;;
11078;SDS011;5592;49.234;7.268;2023-06-26T09:52:58;4.72;;;3.33;;
11078;SDS011;5592;49.234;7.268;2023-06-26T09:55:36;4.25;;;3.85;;
11078;SDS011;5592;49.234;7.268;2023-06-26T09:58:02;4.30;;;3.90;;
11078;SDS011;5592;49.234;7.268;2023-06-26T10:00:29;5.93;;;3.53;;
11078;SDS011;5592;49.234;7.268;2023-06-26T10:02:57;3.50;;;3.13;;
11078;SDS011;5592;49.234;7.268;2023-06-26T10:05:23;6.50;;;3.30;;
11078;SDS011;5592;49.234;7.268;2023-06-26T10:07:48;5.32;;;3.35;;
11078;SDS011;5592;49.234;7.268;2023-06-26T10:10:15;9.07;;;3.28;;
11078;SDS011;5592;49.234;7.268;2023-06-26T10:12:41;5.80;;;3.00;;
11078;SDS011;5592;49.234;7.268;2023-06-26T10:15:13;5.72;;;2.72;;
11078;SDS011;5592;49.234;7.268;2023-06-26T10:17:41;3.00;;;2.70;;
11078;SDS011;5592;49.234;7.268;2023-06-26T10:20:08;5.32;;;3.42;;
11078;SDS011;5592;49.234;7.268;2023-06-26T10:22:41;7.50;;;3.30;;
11078;SDS011;5592;49.234;7.268;2023-06-26T10:25:09;4.70;;;3.63;;
11078;SDS011;5592;49.234;7.268;2023-06-26T10:27:38;15.97;;;3.80;;
11078;SDS011;5592;49.234;7.268;2023-06-26T10:30:13;7.00;;;3.40;;
11078;SDS011;5592;49.234;7.268;2023-06-26T10:32:42;6.03;;;3.33;;
11078;SDS011;5592;49.234;7.268;2023-06-26T10:35:09;7.43;;;3.53;;
11078;SDS011;5592;49.234;7.268;2023-06-26T10:37:42;5.53;;;3.63;;
11078;SDS011;5592;49.234;7.268;2023-06-26T10:40:09;5.53;;;4.30;;
11078;SDS011;5592;49.234;7.268;2023-06-26T10:42:36;6.53;;;3.83;;
11078;SDS011;5592;49.234;7.268;2023-06-26T10:45:09;4.90;;;4.40;;
11078;SDS011;5592;49.234;7.268;2023-06-26T10:47:42;7.20;;;5.00;;
11078;SDS011;5592;49.234;7.268;2023-06-26T10:55:43;9.87;;;5.00;;
11078;SDS011;5592;49.234;7.268;2023-06-26T11:03:44;7.23;;;4.60;;
11078;SDS011;5592;49.234;7.268;2023-06-26T11:06:12;14.53;;;4.63;;
11078;SDS011;5592;49.234;7.268;2023-06-26T11:08:52;6.13;;;4.13;;
11078;SDS011;5592;49.234;7.268;2023-06-26T11:14:19;3.80;;;3.07;;
11078;SDS011;5592;49.234;7.268;2023-06-26T11:16:46;7.50;;;3.33;;
11078;SDS011;5592;49.234;7.268;2023-06-26T11:19:12;3.83;;;3.13;;
11078;SDS011;5592;49.234;7.268;2023-06-26T11:21:39;7.80;;;3.30;;
11078;SDS011;5592;49.234;7.268;2023-06-26T11:24:08;6.23;;;3.23;;
11078;SDS011;5592;49.234;7.268;2023-06-26T11:26:37;4.13;;;3.20;;
11078;SDS011;5592;49.234;7.268;2023-06-26T11:29:04;9.63;;;2.90;;
11078;SDS011;5592;49.234;7.268;2023-06-26T11:31:34;6.80;;;2.90;;
11078;SDS011;5592;49.234;7.268;2023-06-26T11:34:05;8.60;;;3.00;;
11078;SDS011;5592;49.234;7.268;2023-06-26T11:36:33;4.23;;;3.10;;
11078;SDS011;5592;49.234;7.268;2023-06-26T11:39:02;7.20;;;2.57;;
11078;SDS011;5592;49.234;7.268;2023-06-26T11:41:31;3.93;;;2.70;;
11078;SDS011;5592;49.234;7.268;2023-06-26T11:44:02;8.00;;;2.40;;
11078;SDS011;5592;49.234;7.268;2023-06-26T11:46:29;8.00;;;2.77;;
11078;SDS011;5592;49.234;7.268;2023-06-26T11:48:55;4.73;;;2.30;;
11078;SDS011;5592;49.234;7.268;2023-06-26T11:51:21;5.17;;;1.70;;
11078;SDS011;5592;49.234;7.268;2023-06-26T11:53:47;4.53;;;2.13;;
11078;SDS011;5592;49.234;7.268;2023-06-26T11:56:14;8.53;;;2.43;;
11078;SDS011;5592;49.234;7.268;2023-06-26T11:59:00;2.53;;;1.90;;
11078;SDS011;5592;49.234;7.268;2023-06-26T12:01:34;2.63;;;2.13;;
11078;SDS011;5592;49.234;7.268;2023-06-26T12:04:02;9.30;;;1.77;;
11078;SDS011;5592;49.234;7.268;2023-06-26T12:06:29;7.10;;;2.10;;
11078;SDS011;5592;49.234;7.268;2023-06-26T12:09:04;3.53;;;1.90;;
11078;SDS011;5592;49.234;7.268;2023-06-26T12:11:32;5.60;;;2.30;;
11078;SDS011;5592;49.234;7.268;2023-06-26T12:13:59;4.70;;;2.20;;
11078;SDS011;5592;49.234;7.268;2023-06-26T12:16:27;5.57;;;2.30;;
11078;SDS011;5592;49.234;7.268;2023-06-26T12:18:58;6.30;;;2.13;;
11078;SDS011;5592;49.234;7.268;2023-06-26T12:21:43;3.90;;;2.50;;
11078;SDS011;5592;49.234;7.268;2023-06-26T12:24:18;4.70;;;2.23;;
11078;SDS011;5592;49.234;7.268;2023-06-26T12:26:46;5.50;;;2.57;;
11078;SDS011;5592;49.234;7.268;2023-06-26T12:29:15;4.00;;;1.73;;
11078;SDS011;5592;49.234;7.268;2023-06-26T12:31:43;6.30;;;2.30;;
11078;SDS011;5592;49.234;7.268;2023-06-26T12:34:10;3.33;;;1.97;;
11078;SDS011;5592;49.234;7.268;2023-06-26T12:36:47;4.87;;;2.07;;
11078;SDS011;5592;49.234;7.268;2023-06-26T12:39:15;6.40;;;2.03;;
11078;SDS011;5592;49.234;7.268;2023-06-26T12:41:45;2.63;;;1.90;;
11078;SDS011;5592;49.234;7.268;2023-06-26T12:44:21;8.33;;;3.10;;
11078;SDS011;5592;49.234;7.268;2023-06-26T12:46:52;4.30;;;2.40;;
11078;SDS011;5592;49.234;7.268;2023-06-26T12:49:32;4.30;;;2.10;;
11078;SDS011;5592;49.234;7.268;2023-06-26T12:51:59;5.60;;;1.93;;
11078;SDS011;5592;49.234;7.268;2023-06-26T12:54:26;3.83;;;2.07;;
11078;SDS011;5592;49.234;7.268;2023-06-26T12:56:52;3.20;;;1.93;;
11078;SDS011;5592;49.234;7.268;2023-06-26T12:59:17;5.53;;;2.27;;
11078;SDS011;5592;49.234;7.268;2023-06-26T13:01:43;4.83;;;1.73;;
11078;SDS011;5592;49.234;7.268;2023-06-26T13:04:10;3.70;;;1.90;;
11078;SDS011;5592;49.234;7.268;2023-06-26T13:06:36;7.03;;;1.80;;
11078;SDS011;5592;49.234;7.268;2023-06-26T13:09:01;4.33;;;2.10;;
11078;SDS011;5592;49.234;7.268;2023-06-26T13:11:30;4.10;;;1.80;;
11078;SDS011;5592;49.234;7.268;2023-06-26T13:13:56;3.50;;;1.90;;
11078;SDS011;5592;49.234;7.268;2023-06-26T13:16:22;3.70;;;1.80;;
11078;SDS011;5592;49.234;7.268;2023-06-26T13:18:48;3.63;;;2.13;;
11078;SDS011;5592;49.234;7.268;2023-06-26T13:21:14;5.80;;;2.00;;
11078;SDS011;5592;49.234;7.268;2023-06-26T13:23:40;4.83;;;1.43;;
11078;SDS011;5592;49.234;7.268;2023-06-26T13:26:06;3.63;;;1.57;;
11078;SDS011;5592;49.234;7.268;2023-06-26T13:28:32;3.33;;;1.90;;
11078;SDS011;5592;49.234;7.268;2023-06-26T13:30:58;3.23;;;2.40;;
11078;SDS011;5592;49.234;7.268;2023-06-26T13:33:23;4.93;;;2.00;;
11078;SDS011;5592;49.234;7.268;2023-06-26T13:35:50;4.13;;;1.80;;
11078;SDS011;5592;49.234;7.268;2023-06-26T13:38:17;5.20;;;2.07;;
11078;SDS011;5592;49.234;7.268;2023-06-26T13:40:44;5.83;;;1.93;;
11078;SDS011;5592;49.234;7.268;2023-06-26T13:43:09;3.90;;;1.70;;
11078;SDS011;5592;49.234;7.268;2023-06-26T13:45:35;4.47;;;1.50;;
11078;SDS011;5592;49.234;7.268;2023-06-26T13:48:00;4.80;;;2.10;;
11078;SDS011;5592;49.234;7.268;2023-06-26T13:50:26;8.10;;;2.10;;
11078;SDS011;5592;49.234;7.268;2023-06-26T13:52:51;8.23;;;2.00;;
11078;SDS011;5592;49.234;7.268;2023-06-26T13:55:17;4.97;;;1.90;;
11078;SDS011;5592;49.234;7.268;2023-06-26T13:57:43;5.50;;;2.00;;
11078;SDS011;5592;49.234;7.268;2023-06-26T14:00:09;5.20;;;1.80;;
11078;SDS011;5592;49.234;7.268;2023-06-26T14:02:37;6.30;;;1.80;;
11078;SDS011;5592;49.234;7.268;2023-06-26T14:05:02;7.20;;;1.60;;
11078;SDS011;5592;49.234;7.268;2023-06-26T14:07:29;7.60;;;2.70;;
11078;SDS011;5592;49.234;7.268;2023-06-26T14:09:54;4.83;;;1.57;;
11078;SDS011;5592;49.234;7.268;2023-06-26T14:12:20;2.10;;;1.50;;
11078;SDS011;5592;49.234;7.268;2023-06-26T14:14:46;2.33;;;1.53;;
11078;SDS011;5592;49.234;7.268;2023-06-26T14:17:11;3.33;;;1.30;;
11078;SDS011;5592;49.234;7.268;2023-06-26T14:19:41;4.03;;;1.50;;
11078;SDS011;5592;49.234;7.268;2023-06-26T14:22:06;4.03;;;1.90;;
11078;SDS011;5592;49.234;7.268;2023-06-26T14:24:32;7.80;;;1.60;;
11078;SDS011;5592;49.234;7.268;2023-06-26T14:26:57;3.37;;;1.70;;
11078;SDS011;5592;49.234;7.268;2023-06-26T14:29:23;4.67;;;2.07;;
11078;SDS011;5592;49.234;7.268;2023-06-26T14:31:48;3.57;;;1.90;;
11078;SDS011;5592;49.234;7.268;2023-06-26T14:34:14;4.60;;;2.10;;
11078;SDS011;5592;49.234;7.268;2023-06-26T14:36:40;6.93;;;1.70;;
11078;SDS011;5592;49.234;7.268;2023-06-26T14:39:05;7.13;;;1.80;;
11078;SDS011;5592;49.234;7.268;2023-06-26T14:41:31;6.83;;;2.10;;
11078;SDS011;5592;49.234;7.268;2023-06-26T14:43:57;4.30;;;1.87;;
11078;SDS011;5592;49.234;7.268;2023-06-26T14:46:22;3.10;;;1.90;;
11078;SDS011;5592;49.234;7.268;2023-06-26T14:48:48;3.53;;;1.40;;
11078;SDS011;5592;49.234;7.268;2023-06-26T14:51:13;3.60;;;1.50;;
11078;SDS011;5592;49.234;7.268;2023-06-26T14:53:39;6.47;;;1.77;;
11078;SDS011;5592;49.234;7.268;2023-06-26T14:56:04;4.33;;;1.70;;
11078;SDS011;5592;49.234;7.268;2023-06-26T14:58:30;4.50;;;1.87;;
11078;SDS011;5592;49.234;7.268;2023-06-26T15:00:56;2.93;;;2.07;;
11078;SDS011;5592;49.234;7.268;2023-06-26T15:03:22;4.20;;;1.93;;
11078;SDS011;5592;49.234;7.268;2023-06-26T15:05:47;10.10;;;2.40;;
11078;SDS011;5592;49.234;7.268;2023-06-26T15:08:13;3.63;;;1.80;;
11078;SDS011;5592;49.234;7.268;2023-06-26T15:10:39;4.93;;;1.60;;
11078;SDS011;5592;49.234;7.268;2023-06-26T15:13:04;8.43;;;1.90;;
11078;SDS011;5592;49.234;7.268;2023-06-26T15:15:31;5.37;;;1.50;;
11078;SDS011;5592;49.234;7.268;2023-06-26T15:17:56;12.30;;;2.47;;